Weather at Dubrovnik General Hospital Helipad

Public forecast

Using degrees Celsius for public forecast. Weather courtesy of forecast.io.

Closest aviation weather report (METAR) to Dubrovnik General Hospital Helipad

Closest report is Dubrovnik Ruđer Bošković Airport, 9.7 nm (18.0 km) ESE.

2024/05/24 06:00 (retrieved 27 minutes ago)

LDDU 240600Z 10004KT 050V130 CAVOK 20/14 Q1018 NOSIG

Closest aviation forecast (TAF) to Dubrovnik General Hospital Helipad

Closest forecast is Dubrovnik Ruđer Bošković Airport, 9.7 nm (18.0 km) ESE.

2024/05/24 06:27 (retrieved 22 seconds ago)

TAF TAF LDDU 240525Z 2406/2506 20007KT 9999 FEW040 TX23/2414Z TN16/2502Z BECMG 2411/2413 26008KT BECMG 2418/2420 04005KT